createdAt,value
2018-12-15T01:01:35.383Z,2.30
2018-12-15T01:06:38.714Z,2.30
2018-12-15T01:11:42.801Z,2.35
2018-12-15T01:16:46.141Z,2.18
2018-12-15T01:21:50.236Z,2.35
2018-12-15T01:26:53.569Z,2.38
2018-12-15T02:35:20.618Z,2.42
2018-12-15T02:40:23.961Z,2.43
2018-12-15T02:45:28.056Z,2.44
2018-12-15T02:50:31.404Z,2.45
2018-12-15T02:55:35.514Z,2.45
2018-12-15T04:04:01.533Z,2.35
2018-12-15T04:09:05.652Z,2.39
2018-12-15T04:14:08.988Z,2.36
2018-12-15T04:19:12.335Z,2.37
2018-12-15T04:24:15.683Z,2.40
2018-12-15T04:29:19.790Z,2.39
2018-12-15T06:03:08.289Z,2.05
2018-12-15T06:08:11.624Z,2.14
2018-12-15T06:13:15.716Z,2.30
2018-12-15T06:18:19.138Z,2.39
2018-12-15T06:23:22.490Z,2.44
2018-12-15T06:28:25.828Z,2.49
2018-12-15T06:33:35.611Z,2.36
2018-12-15T06:38:38.948Z,2.36
2018-12-15T06:43:42.291Z,2.42
2018-12-15T06:48:45.621Z,2.33
2018-12-15T06:53:48.944Z,2.43
2018-12-15T06:58:52.296Z,2.48
2018-12-15T07:04:01.517Z,2.53
2018-12-15T07:09:04.861Z,2.54
2018-12-15T07:14:08.963Z,2.57
2018-12-15T07:19:22.592Z,2.67
2018-12-15T07:24:29.456Z,2.66
2018-12-15T07:29:34.890Z,2.73
2018-12-15T07:34:41.465Z,2.80
2018-12-15T07:39:46.515Z,2.70
2018-12-15T07:44:52.318Z,2.60
2018-12-15T07:50:01.973Z,2.56
2018-12-15T07:55:17.120Z,2.55
2018-12-15T08:00:30.305Z,2.25
2018-12-15T08:05:38.393Z,2.35
2018-12-15T08:10:49.939Z,2.42
2018-12-15T08:15:53.452Z,2.33
2018-12-15T08:20:59.627Z,2.48
2018-12-15T08:26:07.693Z,2.40
2018-12-15T08:31:12.695Z,2.41
2018-12-15T08:36:16.192Z,2.42
2018-12-15T08:41:21.062Z,2.29
2018-12-15T08:46:24.611Z,2.43
2018-12-15T08:51:31.578Z,2.44
2018-12-15T08:56:36.078Z,2.52
2018-12-15T09:01:47.237Z,2.55
2018-12-15T09:06:51.240Z,2.56
2018-12-15T09:11:55.366Z,2.49
2018-12-15T09:17:00.655Z,2.47
2018-12-15T09:22:14.975Z,2.33
2018-12-15T09:27:22.599Z,2.29
2018-12-15T09:32:29.694Z,2.25
2018-12-15T09:37:33.482Z,2.32
2018-12-15T09:42:38.633Z,2.35
2018-12-15T09:47:45.423Z,2.25
2018-12-15T09:52:51.413Z,2.30
2018-12-15T09:57:55.118Z,2.42
2018-12-15T10:02:58.856Z,2.27
2018-12-15T10:08:06.989Z,2.38
2018-12-15T10:13:12.659Z,2.38
2018-12-15T10:18:16.977Z,2.41
2018-12-15T10:23:21.468Z,2.57
2018-12-15T10:28:29.313Z,2.54
2018-12-15T10:33:33.007Z,2.54
2018-12-15T10:38:36.625Z,2.48
2018-12-15T10:43:40.239Z,2.50
2018-12-15T10:48:49.380Z,2.56
2018-12-15T10:53:54.597Z,2.36
2018-12-15T10:59:12.730Z,2.49
2018-12-15T11:04:20.430Z,2.54
2018-12-15T11:09:25.610Z,2.57
2018-12-15T11:14:29.223Z,2.57
2018-12-15T11:19:37.093Z,2.65
2018-12-15T11:24:37.559Z,2.29
2018-12-15T11:29:46.690Z,2.28
2018-12-15T11:34:52.008Z,2.44
2018-12-15T11:39:55.545Z,2.46
2018-12-15T11:44:59.123Z,2.57
2018-12-15T11:50:03.712Z,2.71
2018-12-15T11:55:08.025Z,2.38
2018-12-15T12:00:12.347Z,2.58
2018-12-15T12:05:15.920Z,2.67
2018-12-15T12:10:19.421Z,2.54
2018-12-15T12:15:22.986Z,2.72
2018-12-15T12:20:26.544Z,2.74
2018-12-15T12:25:30.062Z,2.63
2018-12-15T12:30:33.597Z,2.54
2018-12-15T12:35:37.960Z,2.62
2018-12-15T12:40:42.080Z,2.40
2018-12-15T12:45:46.393Z,2.53
2018-12-15T12:50:49.936Z,2.58
2018-12-15T12:55:53.600Z,2.67
2018-12-15T13:00:57.241Z,2.83
2018-12-15T13:06:01.637Z,2.83
2018-12-15T13:11:06.655Z,2.77
2018-12-15T13:16:23.257Z,2.82
2018-12-15T13:21:27.570Z,2.84
2018-12-15T13:26:31.125Z,2.72
2018-12-15T13:31:35.528Z,2.51
2018-12-15T13:36:39.850Z,2.72
2018-12-15T13:41:43.349Z,2.72
2018-12-15T13:46:50.673Z,2.80
2018-12-15T13:51:54.226Z,2.70
2018-12-15T13:56:58.512Z,2.61
2018-12-15T14:02:02.019Z,2.66
2018-12-15T14:07:05.701Z,2.70
2018-12-15T14:12:09.361Z,2.70
2018-12-15T14:17:12.886Z,2.71
2018-12-15T14:22:16.652Z,2.72
2018-12-15T14:27:22.037Z,2.67
2018-12-15T14:32:26.029Z,2.61
2018-12-15T14:37:31.227Z,2.57
2018-12-15T14:42:34.738Z,2.58
2018-12-15T14:47:39.460Z,2.60
2018-12-15T14:52:43.019Z,2.47
2018-12-15T14:57:46.538Z,2.60
2018-12-15T15:02:50.115Z,2.57
2018-12-15T15:07:53.591Z,2.61
2018-12-15T15:12:57.116Z,2.51
2018-12-15T15:18:03.698Z,2.38
2018-12-15T15:23:07.520Z,2.40
2018-12-15T15:28:12.461Z,2.41
2018-12-15T15:33:16.715Z,2.46
2018-12-15T15:38:21.119Z,2.48
2018-12-15T15:43:27.721Z,2.45
2018-12-15T15:48:32.199Z,2.58
2018-12-15T15:53:37.177Z,2.62
2018-12-15T15:58:40.663Z,2.37
2018-12-15T16:03:44.199Z,2.42
2018-12-15T16:08:47.894Z,2.52
2018-12-15T16:13:51.376Z,2.63
2018-12-15T16:18:54.856Z,2.66
2018-12-15T16:23:58.342Z,2.51
2018-12-15T16:29:01.851Z,2.42
2018-12-15T16:34:05.332Z,2.43
2018-12-15T16:39:08.780Z,2.32
2018-12-15T16:44:20.398Z,2.46
2018-12-15T16:49:23.885Z,2.53
2018-12-15T16:54:27.468Z,2.39
2018-12-15T16:59:30.950Z,2.37
2018-12-15T17:04:34.418Z,2.51
2018-12-15T17:09:37.897Z,2.54
2018-12-15T17:14:42.667Z,2.30
2018-12-15T17:19:46.291Z,2.21
2018-12-15T17:24:50.058Z,2.29
2018-12-15T17:29:53.928Z,2.34
2018-12-15T17:34:57.276Z,2.25
2018-12-15T17:40:01.013Z,2.37
2018-12-15T17:45:05.197Z,2.24
2018-12-15T17:50:08.530Z,2.04
2018-12-15T17:55:12.098Z,2.20
2018-12-15T18:00:15.521Z,2.02
2018-12-15T18:05:18.877Z,2.20
2018-12-15T18:10:22.242Z,2.08
2018-12-15T18:15:25.604Z,2.07
2018-12-15T18:20:28.957Z,2.19
2018-12-15T18:25:32.336Z,2.15
2018-12-15T18:30:35.676Z,2.23
2018-12-15T18:35:39.014Z,2.01
2018-12-15T18:40:42.369Z,1.85
2018-12-15T18:45:45.769Z,1.78
2018-12-15T18:50:49.101Z,2.11
2018-12-15T18:55:52.555Z,2.02
2018-12-15T19:00:55.920Z,1.90
2018-12-15T19:05:59.286Z,1.92
2018-12-15T19:11:02.651Z,1.99
2018-12-15T19:16:06.000Z,2.00
2018-12-15T19:21:09.333Z,1.95
2018-12-15T19:26:12.717Z,1.86
2018-12-15T19:31:16.068Z,1.98
2018-12-15T19:36:20.189Z,1.97
2018-12-15T19:41:24.351Z,1.95
2018-12-15T19:46:30.838Z,2.01
2018-12-15T19:51:34.250Z,1.88
2018-12-15T19:56:37.627Z,1.73
2018-12-15T20:01:41.762Z,1.80
2018-12-15T20:06:46.717Z,1.71
2018-12-15T20:11:51.272Z,1.54
2018-12-15T20:16:54.647Z,1.24
2018-12-15T20:21:57.983Z,1.48
2018-12-15T20:27:02.121Z,1.45
2018-12-15T20:32:05.477Z,1.36
2018-12-15T20:37:08.820Z,1.42
2018-12-15T20:42:12.208Z,1.36
2018-12-15T20:47:15.544Z,1.29
2018-12-15T20:52:18.883Z,1.39
2018-12-15T20:57:22.240Z,1.27
2018-12-15T21:02:25.593Z,0.95
2018-12-15T21:07:28.948Z,1.01
2018-12-15T21:12:32.287Z,1.20
2018-12-15T21:17:35.631Z,1.03
2018-12-15T21:22:38.999Z,1.09
2018-12-15T21:27:42.370Z,1.07
2018-12-15T21:32:45.712Z,1.09
2018-12-15T21:37:49.061Z,0.94
2018-12-15T21:42:53.203Z,0.91
2018-12-15T21:47:57.764Z,1.00
2018-12-15T21:52:59.941Z,0.91
2018-12-15T21:58:03.296Z,0.68
2018-12-15T22:03:09.915Z,0.58
2018-12-15T22:08:13.268Z,0.54
2018-12-15T22:13:16.593Z,0.54
2018-12-15T22:18:19.916Z,0.49
2018-12-15T22:23:23.244Z,0.42
2018-12-15T22:28:26.595Z,0.40
2018-12-15T22:33:29.941Z,0.43
2018-12-15T22:38:33.595Z,0.37
2018-12-15T22:43:37.715Z,0.14
2018-12-15T22:48:41.046Z,0.19
2018-12-15T22:53:44.384Z,0.20
2018-12-15T22:58:47.749Z,0.22
2018-12-15T23:35:31.909Z,0.03
2018-12-15T23:40:35.271Z,-0.17
2018-12-15T23:45:39.368Z,-0.41
2018-12-15T23:50:42.713Z,-0.42
2018-12-15T23:55:46.063Z,-0.27
